createdAt,value
2022-07-28T00:00:26.664Z,68.26
2022-07-28T00:01:24.569Z,68.16
2022-07-28T00:02:26.923Z,68.06
2022-07-28T00:03:26.802Z,68.26
2022-07-28T00:04:26.445Z,68.26
2022-07-28T00:05:44.764Z,68.16
2022-07-28T00:06:25.194Z,68.37
2022-07-28T00:07:25.754Z,68.47
2022-07-28T00:08:26.560Z,68.26
2022-07-28T00:09:26.417Z,68.37
2022-07-28T00:10:26.764Z,68.67
2022-07-28T00:11:26.546Z,68.26
2022-07-28T00:12:25.420Z,68.16
2022-07-28T00:13:26.705Z,68.47
2022-07-28T00:14:26.514Z,68.26
2022-07-28T00:15:44.320Z,68.37
2022-07-28T00:16:26.634Z,68.40
2022-07-28T00:17:26.360Z,68.37
2022-07-28T00:18:25.758Z,68.37
2022-07-28T00:19:26.548Z,68.67
2022-07-28T00:20:25.063Z,68.57
2022-07-28T00:21:26.641Z,68.40
2022-07-28T00:22:26.456Z,68.47
2022-07-28T00:23:37.580Z,68.50
2022-07-28T00:24:26.599Z,68.60
2022-07-28T00:25:44.410Z,68.70
2022-07-28T00:26:26.130Z,68.80
2022-07-28T00:27:26.482Z,68.60
2022-07-28T00:28:26.279Z,68.60
2022-07-28T00:29:26.153Z,68.60
2022-07-28T00:30:26.095Z,68.90
2022-07-28T00:31:25.013Z,69.01
2022-07-28T00:32:26.095Z,68.90
2022-07-28T00:33:26.397Z,69.01
2022-07-28T00:34:26.579Z,69.10
2022-07-28T00:35:48.498Z,69.21
2022-07-28T00:36:26.289Z,69.21
2022-07-28T00:37:26.211Z,69.31
2022-07-28T00:38:26.405Z,69.10
2022-07-28T00:39:26.269Z,69.31
2022-07-28T00:40:24.779Z,69.10
2022-07-28T00:41:25.422Z,69.21
2022-07-28T00:42:26.223Z,69.21
2022-07-28T00:43:26.107Z,69.31
2022-07-28T00:44:26.387Z,69.10
2022-07-28T00:45:44.204Z,69.34
2022-07-28T00:46:24.977Z,69.85
2022-07-28T00:47:25.306Z,69.74
2022-07-28T00:48:26.067Z,69.54
2022-07-28T00:49:25.984Z,69.54
2022-07-28T00:50:24.966Z,69.34
2022-07-28T00:51:26.054Z,69.44
2022-07-28T00:52:25.837Z,69.65
2022-07-28T00:53:25.147Z,69.85
2022-07-28T00:54:25.948Z,69.44
2022-07-28T00:56:03.011Z,69.65
2022-07-28T00:56:26.348Z,69.74
2022-07-28T00:57:26.146Z,69.74
2022-07-28T00:58:25.960Z,69.74
2022-07-28T00:59:25.302Z,69.95
2022-07-28T01:00:24.829Z,69.85
2022-07-28T01:01:26.039Z,69.95
2022-07-28T01:02:25.914Z,69.95
2022-07-28T01:03:26.150Z,70.15
2022-07-28T01:04:25.920Z,70.05
2022-07-28T01:05:44.447Z,70.15
2022-07-28T01:06:25.950Z,70.15
2022-07-28T01:07:25.744Z,70.18
2022-07-28T01:08:24.754Z,70.29
2022-07-28T01:09:25.822Z,70.36
2022-07-28T01:10:26.192Z,70.25
2022-07-28T01:11:25.052Z,70.25
2022-07-28T01:12:25.840Z,70.25
2022-07-28T01:13:27.864Z,70.39
2022-07-28T01:14:25.982Z,70.49
2022-07-28T01:15:43.829Z,70.49
2022-07-28T01:16:24.814Z,70.59
2022-07-28T01:17:24.904Z,70.49
2022-07-28T01:18:25.675Z,70.79
2022-07-28T01:19:26.035Z,70.89
2022-07-28T01:20:25.834Z,70.69
2022-07-28T01:21:25.724Z,70.79
2022-07-28T01:22:26.022Z,70.79
2022-07-28T01:23:24.835Z,70.79
2022-07-28T01:24:24.344Z,70.79
2022-07-28T01:25:48.165Z,71.00
2022-07-28T01:26:25.672Z,70.89
2022-07-28T01:27:26.022Z,70.79
2022-07-28T01:28:25.833Z,70.79
2022-07-28T01:29:25.600Z,70.79
2022-07-28T01:30:26.219Z,70.89
2022-07-28T01:31:25.813Z,71.30
2022-07-28T01:32:25.570Z,71.33
2022-07-28T01:33:25.862Z,71.64
2022-07-28T01:34:24.653Z,71.84
2022-07-28T01:35:43.461Z,71.64
2022-07-28T01:36:25.699Z,71.73
2022-07-28T01:37:25.573Z,71.73
2022-07-28T01:38:25.379Z,71.84
2022-07-28T01:39:25.660Z,71.84
2022-07-28T01:40:24.532Z,71.94
2022-07-28T01:41:25.331Z,71.84
2022-07-28T01:42:25.671Z,71.73
2022-07-28T01:43:25.473Z,71.94
2022-07-28T01:44:25.775Z,71.73
2022-07-28T01:45:43.593Z,71.94
2022-07-28T01:46:25.331Z,71.70
2022-07-28T01:47:25.612Z,71.60
2022-07-28T01:48:25.379Z,71.40
2022-07-28T01:49:25.664Z,71.53
2022-07-28T01:50:25.514Z,71.84
2022-07-28T01:51:24.312Z,71.64
2022-07-28T01:52:25.609Z,71.64
2022-07-28T01:53:25.012Z,71.73
2022-07-28T01:54:25.324Z,71.84
2022-07-28T01:55:43.624Z,72.14
2022-07-28T01:56:24.344Z,72.34
2022-07-28T01:57:25.630Z,72.28
2022-07-28T01:58:25.503Z,72.34
2022-07-28T01:59:25.300Z,72.45
2022-07-28T02:00:25.604Z,72.34
2022-07-28T02:01:25.546Z,72.34
2022-07-28T02:02:24.141Z,72.14
2022-07-28T02:03:23.882Z,72.24
2022-07-28T02:04:25.502Z,72.38
2022-07-28T02:05:43.372Z,72.58
2022-07-28T02:06:25.171Z,72.58
2022-07-28T02:07:25.494Z,72.89
2022-07-28T02:08:24.135Z,72.78
2022-07-28T02:09:23.156Z,72.89
2022-07-28T02:10:23.466Z,72.78
2022-07-28T02:11:23.248Z,72.89
2022-07-28T02:12:23.541Z,72.68
2022-07-28T02:13:23.305Z,72.89
2022-07-28T02:14:23.051Z,72.89
2022-07-28T02:15:43.438Z,72.89
2022-07-28T02:16:23.176Z,72.89
2022-07-28T02:17:23.417Z,72.78
2022-07-28T02:18:23.199Z,72.89
2022-07-28T02:19:23.475Z,72.99
2022-07-28T02:20:23.644Z,73.29
2022-07-28T02:21:22.983Z,73.09
2022-07-28T02:22:23.267Z,73.09
2022-07-28T02:23:23.067Z,73.19
2022-07-28T02:24:23.347Z,73.22
2022-07-28T02:25:43.149Z,73.19
2022-07-28T02:26:23.379Z,73.19
2022-07-28T02:27:23.158Z,73.09
2022-07-28T02:28:22.929Z,73.19
2022-07-28T02:29:49.164Z,73.09
2022-07-28T02:30:23.933Z,72.78
2022-07-28T02:31:23.194Z,72.89
2022-07-28T02:32:27.046Z,72.99
2022-07-28T02:33:29.559Z,73.29
2022-07-28T02:34:27.953Z,73.70
2022-07-28T02:35:43.233Z,73.29
2022-07-28T02:36:24.925Z,73.09
2022-07-28T02:37:24.243Z,73.09
2022-07-28T02:38:25.017Z,73.19
2022-07-28T02:39:24.896Z,72.99
2022-07-28T02:40:23.900Z,72.78
2022-07-28T02:41:24.923Z,72.58
2022-07-28T02:42:24.216Z,72.78
2022-07-28T02:43:24.967Z,72.68
2022-07-28T02:44:24.747Z,72.78
2022-07-28T02:45:43.075Z,72.89
2022-07-28T02:46:24.845Z,72.99
2022-07-28T02:47:25.052Z,73.09
2022-07-28T02:48:23.821Z,72.99
2022-07-28T02:49:24.707Z,73.19
2022-07-28T02:50:24.854Z,73.12
2022-07-28T02:51:24.619Z,73.22
2022-07-28T02:52:24.909Z,73.33
2022-07-28T02:53:24.698Z,73.33
2022-07-28T02:54:25.749Z,73.33
2022-07-28T02:55:42.760Z,73.33
2022-07-28T02:56:24.978Z,73.12
2022-07-28T02:57:24.730Z,73.33
2022-07-28T02:58:25.020Z,73.22
2022-07-28T02:59:23.806Z,73.12
2022-07-28T03:00:24.561Z,73.22
2022-07-28T03:01:24.892Z,73.33
2022-07-28T03:02:24.591Z,73.33
2022-07-28T03:03:24.857Z,73.33
2022-07-28T03:04:24.630Z,73.43
2022-07-28T03:05:42.950Z,73.66
2022-07-28T03:06:28.696Z,73.57
2022-07-28T03:07:24.413Z,73.87
2022-07-28T03:08:24.676Z,73.97
2022-07-28T03:09:24.441Z,73.87
2022-07-28T03:10:33.917Z,73.97
2022-07-28T03:11:25.590Z,73.87
2022-07-28T03:12:24.850Z,73.57
2022-07-28T03:13:24.626Z,73.66
2022-07-28T03:14:24.394Z,73.77
2022-07-28T03:15:42.719Z,73.36
2022-07-28T03:16:24.461Z,73.57
2022-07-28T03:17:23.684Z,73.57
2022-07-28T03:18:24.432Z,73.77
2022-07-28T03:19:24.691Z,73.66
2022-07-28T03:20:24.461Z,73.57
2022-07-28T03:21:24.726Z,73.16
2022-07-28T03:22:24.487Z,73.26
2022-07-28T03:23:23.507Z,73.36
2022-07-28T03:24:24.550Z,73.57
2022-07-28T03:25:42.359Z,73.46
2022-07-28T03:26:24.618Z,73.36
2022-07-28T03:27:24.394Z,73.36
2022-07-28T03:28:23.667Z,73.46
2022-07-28T03:29:23.445Z,73.36
2022-07-28T03:30:24.209Z,73.26
2022-07-28T03:31:24.523Z,73.60
2022-07-28T03:32:24.246Z,74.01
2022-07-28T03:33:24.519Z,74.10
2022-07-28T03:34:23.289Z,74.21
2022-07-28T03:35:42.602Z,74.21
2022-07-28T03:36:23.038Z,74.21
2022-07-28T03:37:24.550Z,74.10
2022-07-28T03:38:24.322Z,74.01
2022-07-28T03:39:24.076Z,74.21
2022-07-28T03:40:24.356Z,74.21
2022-07-28T03:41:24.159Z,74.21
2022-07-28T03:42:24.423Z,74.21
2022-07-28T03:43:24.220Z,74.01
2022-07-28T03:44:27.893Z,74.21
2022-07-28T03:45:42.338Z,74.01
2022-07-28T03:46:24.511Z,73.90
2022-07-28T03:47:24.248Z,73.80
2022-07-28T03:48:22.757Z,73.70
2022-07-28T03:49:24.274Z,73.70
2022-07-28T03:50:24.029Z,73.70
2022-07-28T03:51:24.289Z,73.70
2022-07-28T03:52:23.049Z,73.70
2022-07-28T03:53:23.337Z,73.70
2022-07-28T03:54:24.091Z,73.70
2022-07-28T03:55:42.415Z,73.60
2022-07-28T03:56:24.154Z,73.70
2022-07-28T03:57:23.919Z,73.80
2022-07-28T03:58:26.132Z,73.90
2022-07-28T03:59:22.716Z,74.14
2022-07-28T04:00:24.255Z,74.24
2022-07-28T04:01:24.002Z,74.34
2022-07-28T04:02:24.296Z,74.44
2022-07-28T04:03:42.890Z,74.44
2022-07-28T04:04:24.272Z,74.55
2022-07-28T04:05:42.076Z,74.65
2022-07-28T04:06:24.268Z,74.44
2022-07-28T04:07:24.028Z,74.58
2022-07-28T04:08:23.787Z,74.88
2022-07-28T04:09:24.041Z,75.09
2022-07-28T04:10:22.799Z,74.99
2022-07-28T04:11:24.070Z,74.88
2022-07-28T04:12:23.986Z,74.99
2022-07-28T04:13:24.189Z,75.09
2022-07-28T04:14:23.212Z,74.99
2022-07-28T04:15:42.282Z,75.09
2022-07-28T04:16:24.041Z,75.09
2022-07-28T04:17:23.711Z,75.49
2022-07-28T04:18:23.962Z,75.09
2022-07-28T04:19:23.716Z,75.19
2022-07-28T04:20:23.995Z,75.09
2022-07-28T04:21:23.745Z,75.29
2022-07-28T04:22:23.974Z,75.29
2022-07-28T04:23:23.747Z,75.60
2022-07-28T04:24:23.991Z,75.19
2022-07-28T04:25:41.835Z,75.19
2022-07-28T04:26:24.019Z,75.19
2022-07-28T04:27:22.853Z,75.29
2022-07-28T04:28:23.605Z,74.95
2022-07-28T04:29:27.191Z,74.85
2022-07-28T04:30:23.658Z,75.05
2022-07-28T04:31:23.918Z,74.95
2022-07-28T04:32:23.626Z,74.85
2022-07-28T04:33:23.896Z,74.95
2022-07-28T04:34:23.657Z,74.85
2022-07-28T04:35:41.965Z,74.75
2022-07-28T04:36:23.636Z,74.95
2022-07-28T04:37:23.945Z,74.85
2022-07-28T04:38:22.658Z,74.95
2022-07-28T04:39:23.935Z,74.85
2022-07-28T04:40:23.689Z,74.55
2022-07-28T04:41:23.440Z,74.85
2022-07-28T04:42:23.683Z,74.85
2022-07-28T04:43:23.550Z,75.09
2022-07-28T04:44:22.809Z,75.29
2022-07-28T04:45:53.224Z,75.40
2022-07-28T04:46:24.890Z,75.26
2022-07-28T04:47:23.578Z,75.05
2022-07-28T04:48:23.833Z,75.16
2022-07-28T04:49:22.696Z,75.36
2022-07-28T04:50:23.368Z,75.36
2022-07-28T04:51:23.622Z,75.16
2022-07-28T04:52:23.391Z,75.16
2022-07-28T04:53:23.640Z,74.95
2022-07-28T04:54:26.690Z,75.05
2022-07-28T04:55:41.700Z,75.05
2022-07-28T04:56:23.383Z,74.95
2022-07-28T04:57:23.679Z,75.05
2022-07-28T04:58:23.469Z,75.02
2022-07-28T04:59:22.421Z,74.62
2022-07-28T05:00:23.484Z,74.51
2022-07-28T05:01:22.865Z,74.51
2022-07-28T05:02:23.518Z,74.51
2022-07-28T05:03:23.274Z,74.31
2022-07-28T05:04:23.619Z,74.41
2022-07-28T05:05:41.343Z,74.41
2022-07-28T05:06:22.552Z,74.41
2022-07-28T05:07:21.359Z,74.71
2022-07-28T05:08:26.370Z,74.82
2022-07-28T05:09:23.304Z,74.82
2022-07-28T05:10:23.573Z,74.62
2022-07-28T05:11:23.317Z,74.71
2022-07-28T05:12:22.330Z,74.51
2022-07-28T05:13:23.345Z,74.62
2022-07-28T05:14:23.587Z,74.58
2022-07-28T05:15:41.418Z,74.27
2022-07-28T05:16:23.157Z,74.17
2022-07-28T05:17:23.350Z,74.27
2022-07-28T05:18:21.261Z,74.48
2022-07-28T05:19:23.402Z,74.38
2022-07-28T05:20:23.165Z,74.38
2022-07-28T05:21:23.416Z,74.07
2022-07-28T05:22:30.589Z,74.17
2022-07-28T05:23:23.343Z,74.17
2022-07-28T05:24:22.109Z,73.87
2022-07-28T05:25:41.445Z,73.93
2022-07-28T05:26:21.155Z,74.04
2022-07-28T05:27:23.352Z,73.53
2022-07-28T05:28:23.128Z,73.33
2022-07-28T05:29:23.375Z,73.70
2022-07-28T05:30:22.123Z,73.80
2022-07-28T05:31:23.486Z,73.49
2022-07-28T05:32:30.518Z,73.29
2022-07-28T05:33:23.279Z,73.39
2022-07-28T05:34:23.050Z,72.89
2022-07-28T05:35:41.392Z,73.09
2022-07-28T05:36:21.135Z,73.29
2022-07-28T05:37:23.334Z,73.29
2022-07-28T05:38:21.251Z,73.29
2022-07-28T05:39:20.919Z,73.49
2022-07-28T05:40:23.114Z,73.60
2022-07-28T05:41:21.871Z,73.29
2022-07-28T05:42:23.120Z,73.49
2022-07-28T05:43:20.928Z,73.70
2022-07-28T05:44:21.262Z,73.49
2022-07-28T05:45:40.998Z,72.99
2022-07-28T05:46:21.348Z,73.09
2022-07-28T05:47:26.732Z,73.39
2022-07-28T05:48:21.053Z,73.80
2022-07-28T05:49:23.324Z,73.39
2022-07-28T05:50:21.065Z,73.39
2022-07-28T05:51:20.805Z,73.39
2022-07-28T05:52:26.782Z,73.56
2022-07-28T05:53:23.168Z,73.76
2022-07-28T05:54:20.981Z,72.96
2022-07-28T05:56:00.296Z,73.25
2022-07-28T05:56:23.916Z,72.75
2022-07-28T05:57:26.695Z,72.92
2022-07-28T05:58:20.811Z,72.92
2022-07-28T05:59:21.086Z,72.61
2022-07-28T06:00:20.863Z,72.52
2022-07-28T06:01:20.204Z,72.11
2022-07-28T06:02:26.737Z,72.21
2022-07-28T06:03:20.847Z,72.11
2022-07-28T06:04:28.172Z,72.41
2022-07-28T06:06:00.513Z,72.58
2022-07-28T06:06:23.062Z,72.17
2022-07-28T06:07:43.676Z,72.08
2022-07-28T06:08:23.042Z,72.48
2022-07-28T06:09:21.557Z,72.17
2022-07-28T06:10:20.132Z,72.28
2022-07-28T06:11:21.911Z,72.28
2022-07-28T06:12:20.050Z,71.77
2022-07-28T06:13:20.781Z,71.57
2022-07-28T06:14:20.539Z,71.88
2022-07-28T06:15:41.582Z,71.88
2022-07-28T06:16:21.104Z,71.67
2022-07-28T06:17:24.694Z,71.77
2022-07-28T06:18:20.497Z,71.57
2022-07-28T06:19:20.745Z,71.84
2022-07-28T06:20:20.472Z,71.73
2022-07-28T06:21:22.663Z,71.64
2022-07-28T06:22:26.724Z,71.91
2022-07-28T06:23:20.633Z,71.60
2022-07-28T06:24:20.896Z,71.40
2022-07-28T06:25:40.712Z,70.25
2022-07-28T06:26:20.987Z,70.15
2022-07-28T06:27:19.886Z,70.56
2022-07-28T06:28:20.641Z,70.56
2022-07-28T06:29:20.398Z,70.25
2022-07-28T06:30:20.625Z,70.05
2022-07-28T06:31:20.430Z,69.95
2022-07-28T06:32:29.892Z,69.71
2022-07-28T06:33:20.736Z,69.42
2022-07-28T06:34:20.491Z,69.82
2022-07-28T06:35:46.513Z,69.58
2022-07-28T06:36:21.511Z,69.38
2022-07-28T06:37:26.667Z,69.89
2022-07-28T06:38:20.541Z,69.28
2022-07-28T06:39:20.621Z,68.77
2022-07-28T06:40:20.380Z,68.67
2022-07-28T06:41:20.659Z,68.77
2022-07-28T06:42:20.357Z,68.95
2022-07-28T06:43:20.628Z,69.15
2022-07-28T06:44:20.625Z,68.74
2022-07-28T06:45:42.580Z,67.90
2022-07-28T06:46:20.520Z,67.60
2022-07-28T06:47:26.721Z,66.89
2022-07-28T06:48:20.244Z,67.30
2022-07-28T06:49:20.595Z,67.90
2022-07-28T06:50:26.461Z,67.07
2022-07-28T06:51:21.550Z,66.93
2022-07-28T06:52:20.286Z,66.76
2022-07-28T06:53:20.504Z,66.96
2022-07-28T06:54:20.263Z,67.03
2022-07-28T06:55:41.495Z,66.33
2022-07-28T06:56:21.451Z,65.62
2022-07-28T06:58:36.636Z,66.19
2022-07-28T06:59:38.346Z,65.53
2022-07-28T07:00:36.667Z,64.39
2022-07-28T07:01:36.411Z,64.09
2022-07-28T07:02:36.105Z,64.39
2022-07-28T07:03:36.332Z,64.69
2022-07-28T07:04:36.620Z,63.99
2022-07-28T07:05:36.319Z,63.39
2022-07-28T07:06:37.625Z,63.59
2022-07-28T07:07:56.430Z,63.68
2022-07-28T07:08:38.220Z,63.79
2022-07-28T07:09:38.577Z,64.09
2022-07-28T07:10:38.365Z,64.09
2022-07-28T07:11:38.247Z,64.29
2022-07-28T07:12:37.041Z,63.79
2022-07-28T07:13:37.388Z,62.88
2022-07-28T07:14:38.200Z,63.51
2022-07-28T07:15:37.997Z,64.12
2022-07-28T07:16:38.322Z,63.68
2022-07-28T07:17:58.157Z,63.68
2022-07-28T07:18:35.961Z,63.85
2022-07-28T07:19:36.187Z,63.22
2022-07-28T07:20:35.932Z,62.24
2022-07-28T07:21:36.157Z,62.24
2022-07-28T07:22:35.911Z,62.45
2022-07-28T07:23:36.135Z,62.95
2022-07-28T07:24:35.879Z,63.65
2022-07-28T07:25:36.115Z,61.94
2022-07-28T07:26:35.863Z,62.48
2022-07-28T07:27:58.100Z,63.31
2022-07-28T07:28:35.898Z,62.98
2022-07-28T07:29:36.122Z,63.15
2022-07-28T07:30:35.873Z,62.55
2022-07-28T07:31:36.158Z,62.79
2022-07-28T07:32:35.844Z,62.26
2022-07-28T07:33:36.079Z,59.72
2022-07-28T07:34:35.826Z,59.89
2022-07-28T07:35:36.066Z,59.46
2022-07-28T07:36:35.830Z,58.43
2022-07-28T07:37:57.082Z,57.20
2022-07-28T07:38:35.854Z,57.70
2022-07-28T07:39:36.093Z,56.40
2022-07-28T07:40:35.826Z,56.37
2022-07-28T07:41:36.065Z,56.77
2022-07-28T07:42:35.811Z,57.24
2022-07-28T07:43:36.057Z,56.65
2022-07-28T07:44:35.810Z,56.82
2022-07-28T07:45:36.036Z,55.72
2022-07-28T07:46:35.889Z,56.02
2022-07-28T07:47:58.026Z,56.39
2022-07-28T07:48:35.870Z,56.29
2022-07-28T07:49:45.399Z,55.79
2022-07-28T07:50:36.779Z,55.27
2022-07-28T07:51:36.013Z,55.47
2022-07-28T07:52:35.775Z,56.27
2022-07-28T07:53:36.011Z,55.64
2022-07-28T07:54:35.760Z,54.71
2022-07-28T07:55:37.769Z,53.92
2022-07-28T07:56:35.741Z,53.22
2022-07-28T07:57:58.062Z,53.29
2022-07-28T07:58:35.850Z,52.92
2022-07-28T07:59:35.589Z,53.79
2022-07-28T08:00:35.850Z,52.59
2022-07-28T08:01:35.595Z,53.29
2022-07-28T08:02:36.835Z,53.19
2022-07-28T08:03:35.668Z,52.39
2022-07-28T08:04:37.737Z,52.49
2022-07-28T08:05:36.470Z,52.89
2022-07-28T08:06:35.974Z,53.36
2022-07-28T08:07:56.595Z,53.17
2022-07-28T08:08:43.803Z,53.54
2022-07-28T08:09:36.619Z,51.47
2022-07-28T08:10:35.904Z,52.14
2022-07-28T08:11:35.642Z,52.14
2022-07-28T08:12:35.887Z,51.75
2022-07-28T08:13:35.617Z,51.82
2022-07-28T08:14:35.878Z,51.82
2022-07-28T08:15:35.607Z,50.62
2022-07-28T08:16:35.374Z,50.32
2022-07-28T08:17:56.599Z,51.22
2022-07-28T08:18:35.378Z,51.92
2022-07-28T08:19:35.618Z,52.72
2022-07-28T08:20:35.367Z,50.32
2022-07-28T08:21:35.600Z,50.82
2022-07-28T08:22:35.350Z,50.92
2022-07-28T08:23:35.596Z,50.52
2022-07-28T08:24:35.513Z,50.43
2022-07-28T08:25:35.561Z,50.92
2022-07-28T08:26:35.320Z,50.92
2022-07-28T08:27:57.668Z,51.40
2022-07-28T08:28:35.432Z,50.60
2022-07-28T08:29:35.681Z,49.80
2022-07-28T08:30:35.450Z,49.68
2022-07-28T08:31:35.729Z,50.18
2022-07-28T08:32:35.431Z,49.88
2022-07-28T08:33:35.665Z,49.95
2022-07-28T08:34:36.608Z,49.23
2022-07-28T08:35:35.803Z,49.13
2022-07-28T08:36:35.415Z,48.64
2022-07-28T08:37:56.419Z,49.63
2022-07-28T08:38:35.566Z,49.61
2022-07-28T08:39:36.888Z,47.82
2022-07-28T08:40:36.696Z,48.11
2022-07-28T08:41:37.550Z,48.07
2022-07-28T08:42:37.328Z,48.05
2022-07-28T08:43:37.180Z,47.16
2022-07-28T08:44:37.519Z,46.53
2022-07-28T08:45:37.578Z,46.02
2022-07-28T08:46:36.269Z,45.42
2022-07-28T08:48:10.710Z,47.06
2022-07-28T08:48:38.310Z,46.05
2022-07-28T08:49:37.009Z,43.67
2022-07-28T08:50:37.286Z,44.96
2022-07-28T08:51:37.076Z,43.95
2022-07-28T08:52:36.093Z,43.55
2022-07-28T08:53:37.230Z,42.94
2022-07-28T08:54:37.029Z,42.84
2022-07-28T08:55:37.381Z,42.62
2022-07-28T08:56:37.150Z,42.80
2022-07-28T08:57:55.493Z,42.38
2022-07-28T08:58:37.253Z,42.88
2022-07-28T08:59:37.111Z,41.97
2022-07-28T09:00:36.975Z,40.96
2022-07-28T09:01:38.643Z,40.66
2022-07-28T09:02:36.234Z,41.36
2022-07-28T09:03:36.462Z,40.64
2022-07-28T09:04:37.222Z,40.64
2022-07-28T09:05:37.016Z,39.17
2022-07-28T09:06:37.304Z,40.37
2022-07-28T09:07:55.843Z,41.33
2022-07-28T09:08:36.860Z,40.53
2022-07-28T09:09:36.249Z,39.52
2022-07-28T09:10:37.030Z,39.52
2022-07-28T09:11:36.879Z,39.32
2022-07-28T09:12:36.188Z,39.50
2022-07-28T09:13:38.477Z,39.68
2022-07-28T09:14:36.807Z,39.07
2022-07-28T09:15:36.192Z,37.87
2022-07-28T09:16:37.019Z,36.90
2022-07-28T09:17:54.818Z,37.38
2022-07-28T09:18:37.107Z,38.07
2022-07-28T09:19:36.891Z,37.79
2022-07-28T09:20:35.695Z,38.30
2022-07-28T09:21:35.994Z,37.22
2022-07-28T09:22:36.804Z,38.68
2022-07-28T09:23:43.890Z,37.87
2022-07-28T09:24:37.883Z,36.99
2022-07-28T09:25:36.745Z,36.80
2022-07-28T09:26:37.040Z,36.71
2022-07-28T09:27:54.849Z,37.08
2022-07-28T09:28:37.064Z,36.69
2022-07-28T09:29:36.923Z,36.51
2022-07-28T09:30:36.749Z,36.80
2022-07-28T09:31:37.129Z,37.14
2022-07-28T09:32:36.873Z,36.82
2022-07-28T09:33:43.141Z,37.81
2022-07-28T09:34:38.028Z,37.40
2022-07-28T09:35:36.834Z,37.10
2022-07-28T09:36:36.628Z,37.10
2022-07-28T09:37:54.936Z,36.82
2022-07-28T09:38:36.659Z,37.61
2022-07-28T09:39:35.953Z,37.73
2022-07-28T09:40:36.744Z,38.49
2022-07-28T09:41:36.161Z,38.09
2022-07-28T09:42:36.941Z,36.79
2022-07-28T09:43:36.781Z,36.90
2022-07-28T09:44:35.302Z,37.71
2022-07-28T09:45:35.932Z,37.02
2022-07-28T09:46:36.915Z,37.73
2022-07-28T09:47:54.732Z,37.59
2022-07-28T09:48:37.007Z,37.99
2022-07-28T09:49:36.712Z,36.41
2022-07-28T09:50:36.443Z,36.41
2022-07-28T09:51:36.246Z,36.71
2022-07-28T09:52:36.528Z,37.49
2022-07-28T09:53:36.800Z,37.77
2022-07-28T09:54:40.509Z,36.08
2022-07-28T09:55:37.391Z,36.08
2022-07-28T09:56:36.700Z,35.21
2022-07-28T09:57:54.493Z,34.84
2022-07-28T09:58:36.709Z,35.63
2022-07-28T09:59:36.570Z,37.01
2022-07-28T10:00:36.358Z,35.92
2022-07-28T10:01:37.430Z,36.22
2022-07-28T10:02:36.618Z,35.54
2022-07-28T10:03:35.870Z,37.26
2022-07-28T10:04:36.723Z,37.04
2022-07-28T10:05:36.535Z,36.02
2022-07-28T10:06:36.847Z,36.41
2022-07-28T10:07:54.664Z,35.13
2022-07-28T10:08:35.413Z,35.43
2022-07-28T10:09:35.694Z,34.72
2022-07-28T10:10:36.498Z,35.10
2022-07-28T10:11:41.416Z,34.01
2022-07-28T10:12:37.685Z,34.54
2022-07-28T10:13:36.550Z,35.54
2022-07-28T10:14:36.324Z,35.25
2022-07-28T10:15:34.974Z,36.61
2022-07-28T10:16:36.549Z,35.11
2022-07-28T10:17:54.340Z,34.70
2022-07-28T10:18:36.536Z,34.61
2022-07-28T10:19:36.326Z,34.33
2022-07-28T10:20:36.199Z,35.31
2022-07-28T10:21:35.210Z,34.03
2022-07-28T10:22:40.899Z,34.70
2022-07-28T10:23:37.090Z,33.80
2022-07-28T10:24:36.408Z,34.28
2022-07-28T10:25:36.209Z,33.87
2022-07-28T10:26:36.532Z,32.38
2022-07-28T10:27:54.327Z,33.17
2022-07-28T10:28:41.956Z,33.17
2022-07-28T10:29:37.441Z,33.17
2022-07-28T10:30:36.310Z,34.44
2022-07-28T10:31:36.112Z,34.83
2022-07-28T10:32:35.991Z,33.84
2022-07-28T10:33:35.275Z,33.43
2022-07-28T10:34:35.073Z,32.64
2022-07-28T10:35:54.256Z,32.92
2022-07-28T10:36:37.234Z,32.32
2022-07-28T10:37:54.046Z,32.70
2022-07-28T10:38:36.259Z,32.01
2022-07-28T10:39:35.054Z,32.01
2022-07-28T10:40:36.364Z,32.01
2022-07-28T10:41:36.169Z,30.65
2022-07-28T10:42:34.966Z,31.44
2022-07-28T10:43:36.277Z,31.81
2022-07-28T10:44:37.120Z,31.83
2022-07-28T10:46:03.111Z,31.14
2022-07-28T10:46:37.329Z,32.20
2022-07-28T10:47:54.043Z,31.62
2022-07-28T10:48:36.276Z,32.39
2022-07-28T10:49:36.134Z,30.62
2022-07-28T10:50:35.370Z,31.59
2022-07-28T10:51:44.603Z,30.62
2022-07-28T10:52:56.067Z,31.70
2022-07-28T10:53:37.307Z,32.39
2022-07-28T10:54:36.152Z,32.27
2022-07-28T10:55:35.946Z,30.49
2022-07-28T10:56:34.962Z,31.20
2022-07-28T10:58:02.189Z,31.80
2022-07-28T10:58:36.863Z,31.41
2022-07-28T10:59:36.162Z,31.62
2022-07-28T11:00:54.439Z,32.71
2022-07-28T11:01:48.458Z,32.32
2022-07-28T11:02:36.729Z,31.74
2022-07-28T11:03:36.306Z,32.37
2022-07-28T11:04:35.936Z,34.15
2022-07-28T11:05:35.726Z,32.56
2022-07-28T11:06:35.036Z,32.86
2022-07-28T11:07:53.941Z,33.29
2022-07-28T11:08:35.687Z,33.29
2022-07-28T11:09:36.029Z,33.39
2022-07-28T11:10:35.911Z,33.87
2022-07-28T11:11:35.911Z,34.81
2022-07-28T11:12:35.597Z,32.34
2022-07-28T11:13:41.080Z,31.63
2022-07-28T11:14:39.890Z,32.50
2022-07-28T11:15:35.618Z,31.91
2022-07-28T11:16:36.245Z,30.72
2022-07-28T11:17:53.872Z,31.23
2022-07-28T11:18:35.642Z,31.73
2022-07-28T11:19:36.420Z,31.94
2022-07-28T11:20:34.741Z,31.97
2022-07-28T11:21:39.759Z,33.18
2022-07-28T11:22:35.093Z,33.98
2022-07-28T11:23:33.488Z,34.61
2022-07-28T11:24:33.774Z,35.21
2022-07-28T11:25:34.000Z,35.43
2022-07-28T11:26:33.735Z,35.84
2022-07-28T11:27:53.492Z,36.27
2022-07-28T11:28:33.734Z,36.68
2022-07-28T11:29:33.477Z,37.47
2022-07-28T11:30:33.885Z,36.60
2022-07-28T11:31:33.507Z,36.40
2022-07-28T11:32:42.095Z,37.03
2022-07-28T11:33:34.505Z,37.54
2022-07-28T11:34:33.791Z,37.24
2022-07-28T11:35:33.553Z,39.04
2022-07-28T11:36:33.785Z,39.72
2022-07-28T11:37:53.579Z,39.81
2022-07-28T11:38:33.780Z,38.92
2022-07-28T11:39:43.266Z,39.42
2022-07-28T11:40:34.780Z,38.35
2022-07-28T11:41:33.526Z,38.47
2022-07-28T11:42:33.855Z,38.88
2022-07-28T11:43:36.082Z,39.97
2022-07-28T11:44:33.745Z,40.19
2022-07-28T11:45:38.415Z,40.48
2022-07-28T11:46:34.283Z,40.50
2022-07-28T11:47:54.030Z,40.70
2022-07-28T11:48:33.458Z,41.20
2022-07-28T11:49:33.729Z,40.60
2022-07-28T11:50:33.439Z,40.01
2022-07-28T11:51:38.801Z,41.30
2022-07-28T11:52:34.431Z,41.10
2022-07-28T11:53:33.677Z,40.11
2022-07-28T11:54:33.440Z,40.90
2022-07-28T11:55:55.946Z,40.31
2022-07-28T11:56:34.439Z,39.83
2022-07-28T11:57:55.194Z,41.12
2022-07-28T11:58:33.471Z,40.34
2022-07-28T11:59:36.913Z,40.47
2022-07-28T12:00:33.840Z,42.45
2022-07-28T12:01:38.293Z,42.55
2022-07-28T12:02:34.383Z,41.63
2022-07-28T12:03:49.056Z,41.53
2022-07-28T12:04:34.373Z,41.33
2022-07-28T12:05:34.278Z,40.82
2022-07-28T12:06:34.352Z,41.49
2022-07-28T12:07:55.580Z,41.10
2022-07-28T12:08:33.367Z,40.80
2022-07-28T12:09:42.027Z,39.81
2022-07-28T12:10:53.937Z,39.91
2022-07-28T12:11:34.074Z,40.20
2022-07-28T12:12:33.328Z,40.33
2022-07-28T12:13:33.076Z,41.22
2022-07-28T12:14:38.579Z,41.30
2022-07-28T12:15:34.048Z,40.01
2022-07-28T12:16:33.368Z,40.60
2022-07-28T12:17:55.026Z,40.48
2022-07-28T12:18:33.328Z,40.41
2022-07-28T12:19:33.275Z,39.71
2022-07-28T12:20:33.326Z,39.91
2022-07-28T12:21:33.069Z,40.72
2022-07-28T12:22:33.320Z,41.02
2022-07-28T12:23:34.947Z,42.01
2022-07-28T12:24:44.869Z,40.33
2022-07-28T12:25:34.063Z,40.12
2022-07-28T12:26:41.549Z,40.12
2022-07-28T12:27:56.061Z,39.93
2022-07-28T12:28:32.875Z,40.62
2022-07-28T12:29:36.061Z,41.12
2022-07-28T12:30:32.852Z,41.22
2022-07-28T12:31:33.406Z,41.83
2022-07-28T12:32:32.866Z,41.24
2022-07-28T12:33:33.112Z,41.04
2022-07-28T12:34:32.856Z,42.23
2022-07-28T12:35:33.111Z,41.04
2022-07-28T12:36:32.841Z,41.04
2022-07-28T12:37:55.188Z,41.33
2022-07-28T12:38:32.977Z,40.84
2022-07-28T12:39:32.713Z,41.24
2022-07-28T12:40:32.947Z,41.24
2022-07-28T12:41:32.705Z,41.66
2022-07-28T12:42:32.945Z,41.95
2022-07-28T12:43:32.683Z,42.85
2022-07-28T12:44:32.929Z,42.85
2022-07-28T12:45:32.770Z,42.63
2022-07-28T12:46:32.922Z,42.13
2022-07-28T12:47:55.142Z,42.15
2022-07-28T12:48:33.069Z,41.75
2022-07-28T12:49:32.682Z,42.35
2022-07-28T12:50:32.924Z,42.05
2022-07-28T12:51:32.746Z,41.66
2022-07-28T12:52:32.998Z,41.55
2022-07-28T12:53:32.732Z,42.15